M I D A S
Marine Information and Data Acquisition System
Tripno 1141 of the Zeeleeuw from 2006-07-26 06:50:28 to 2006-07-26 14:25:48
Back to CruiseResearch ActivitiesStationsMapUnderway DataData graphs

EquipmentUnitsComment
TimeDGPSUTC
LatitudeDGPSDM.mWGS84
LongitudeDGPSDM.mWGS84
HeadingGyrodeg 
SOGDGPSknotsSpeed over ground
COGDGPSdegCourse over ground
DepthEcho soundermeters200 kHz
Missing or incorrect values are displayed as -999
Navigation data collected by the RV Zeeleeuw from 2006-07-26 06:41:01 to 2006-07-26 14:37:47
Time Latitude Longitude Heading SOG COG Depth
2006-07-26 06:42:06 51°13.612 2°56.042 105.2 3 287 -999
2006-07-26 06:43:06 51°13.63 2°55.953 114.6 3.5 292 -999
2006-07-26 06:44:06 51°13.659 2°55.87 125.3 3.7 303 -999
2006-07-26 06:45:06 51°13.693 2°55.788 122.5 3.5 303 -999
2006-07-26 06:46:06 51°13.712 2°55.74 106.6 0.7 312 -999
2006-07-26 06:47:06 51°13.72 2°55.755 58.8 0.6 30 -999
2006-07-26 06:48:06 51°13.711 2°55.729 31.2 0.5 277 -999
2006-07-26 06:49:06 51°13.741 2°55.711 336 3.3 330 -999
2006-07-26 06:50:06 51°13.832 2°55.634 338 8.1 336 -999
2006-07-26 06:51:06 51°13.967 2°55.536 339 9.2 336 -999
2006-07-26 06:52:06 51°14.09 2°55.449 336.9 7.4 334 -999
2006-07-26 06:53:06 51°14.198 2°55.354 330.1 7.5 327 -999
2006-07-26 06:54:06 51°14.291 2°55.223 315 7.5 312 -999
2006-07-26 06:55:06 51°14.373 2°55.069 314.7 7.9 312 -999
2006-07-26 06:56:06 51°14.493 2°54.863 325.4 11.9 316 -999
2006-07-26 06:57:06 51°14.658 2°54.678 335.6 12.3 325 -999
2006-07-26 06:58:06 51°14.828 2°54.499 336 12.2 326 -999
2006-07-26 06:59:06 51°14.996 2°54.32 334.7 12 325 -999
2006-07-26 07:00:06 51°15.16 2°54.132 335.5 12.3 326 -999
2006-07-26 07:01:06 51°15.328 2°53.94 336.5 12.4 327 -999
2006-07-26 07:02:06 51°15.51 2°53.802 345.5 12.2 335 -999
2006-07-26 07:03:06 51°15.693 2°53.665 345.3 12.2 334 -999
2006-07-26 07:04:06 51°15.876 2°53.532 349.8 12 340 -999
2006-07-26 07:05:06 51°16.065 2°53.42 349.1 12.1 339 -999
2006-07-26 07:06:06 51°16.252 2°53.304 348.5 12.1 338 -999
2006-07-26 07:07:06 51°16.44 2°53.19 349.8 12.1 340 -999
2006-07-26 07:08:06 51°16.619 2°53.048 330.4 12.3 319 -999
2006-07-26 07:09:02 51°16.715 2°52.785 294.2 12.7 286 9.4
2006-07-26 07:10:02 51°16.721 2°52.533 261.9 6.6 255 9
2006-07-26 07:11:02 51°16.707 2°52.412 283.7 3.7 266 8.7
2006-07-26 07:12:02 51°16.707 2°52.33 296.8 2.8 271 9.1
2006-07-26 07:13:02 51°16.715 2°52.254 309.1 3.3 287 9.2
2006-07-26 07:14:01 51°16.737 2°52.172 320.3 3.3 298 9
2006-07-26 07:15:02 51°16.765 2°52.11 340.9 2.6 315 9.1
2006-07-26 07:16:02 51°16.796 2°52.083 11.8 1.9 350 8.9
2006-07-26 07:17:02 51°16.822 2°52.099 49.6 1.9 47 8.9
2006-07-26 07:18:02 51°16.835 2°52.158 70.8 2.7 77 9.2
2006-07-26 07:19:02 51°16.839 2°52.231 78.3 2.7 88 9
2006-07-26 07:20:02 51°16.836 2°52.303 83.8 2.7 96 8.9
2006-07-26 07:21:02 51°16.827 2°52.374 91.2 2.8 107 8.9
2006-07-26 07:22:02 51°16.8 2°52.439 121 3.2 139 9.1
2006-07-26 07:23:02 51°16.746 2°52.479 151.3 3.8 165 9
2006-07-26 07:24:02 51°16.68 2°52.479 182.1 4.2 189 9.4
2006-07-26 07:25:02 51°16.614 2°52.438 209.9 4.3 211 10
2006-07-26 07:26:02 51°16.564 2°52.359 244.9 4.1 239 10.1
2006-07-26 07:27:02 51°16.552 2°52.261 293.9 3.6 276 9.9
2006-07-26 07:28:02 51°16.575 2°52.191 342.2 2.6 319 9.8
2006-07-26 07:29:02 51°16.612 2°52.174 18.1 2.5 2 9.5
2006-07-26 07:30:02 51°16.655 2°52.191 31.3 2.8 22 9.4
2006-07-26 07:31:01 51°16.692 2°52.229 46.1 2.7 43 9.1
2006-07-26 07:32:02 51°16.711 2°52.293 75 2.8 83 9.1
2006-07-26 07:33:02 51°16.703 2°52.348 94.5 1.8 118 9
2006-07-26 07:34:02 51°16.682 2°52.38 108.5 1.6 145 9.3
2006-07-26 07:35:02 51°16.661 2°52.397 113 1.4 160 9.5
2006-07-26 07:36:02 51°16.636 2°52.421 110.5 2.2 136 9.8
2006-07-26 07:37:02 51°16.605 2°52.478 114.1 3.3 130 10.1
2006-07-26 07:38:02 51°16.567 2°52.539 121.2 2.9 140 10.2
2006-07-26 07:39:02 51°16.533 2°52.573 125.7 2.1 152 10.5
2006-07-26 07:40:02 51°16.502 2°52.592 125.9 1.7 161 10.7
2006-07-26 07:41:02 51°16.464 2°52.623 141.4 4.1 156 10.8
2006-07-26 07:42:02 51°16.38 2°52.626 187.9 5.3 194 11
2006-07-26 07:43:02 51°16.303 2°52.559 212.1 5.3 216 11.1
2006-07-26 07:44:02 51°16.239 2°52.472 218.2 4.6 223 11.2
2006-07-26 07:45:02 51°16.189 2°52.395 218.1 3.9 225 11.3
2006-07-26 07:46:02 51°16.145 2°52.327 213.7 3.5 224 11.3
2006-07-26 07:47:02 51°16.103 2°52.266 208.4 3.3 222 11.3
2006-07-26 07:48:02 51°16.063 2°52.21 205.3 3.2 221 11.4
2006-07-26 07:49:02 51°16.023 2°52.155 202.9 3.1 220 11.4
2006-07-26 07:50:02 51°15.983 2°52.103 201.3 3.1 220 11.4
2006-07-26 07:51:02 51°15.944 2°52.051 200.8 3.1 219 11.5
2006-07-26 07:52:01 51°15.905 2°52 201.4 3.1 220 11.5
2006-07-26 07:53:02 51°15.865 2°51.947 202 3.1 220 11.5
2006-07-26 07:54:02 51°15.827 2°51.894 202.7 3 220 11.6
2006-07-26 07:55:02 51°15.788 2°51.841 203.2 3 221 11.7
2006-07-26 07:56:02 51°15.75 2°51.788 204.2 3 221 11.7
2006-07-26 07:57:02 51°15.712 2°51.734 205.2 3 221 11.7
2006-07-26 07:58:02 51°15.676 2°51.68 209.7 2.9 226 11.7
2006-07-26 07:59:02 51°15.645 2°51.625 220.5 2.7 231 11.7
2006-07-26 08:00:02 51°15.619 2°51.569 225.6 2.6 235 11.7
2006-07-26 08:01:02 51°15.595 2°51.513 227.3 2.6 236 11.8
2006-07-26 08:02:02 51°15.571 2°51.457 230.5 2.5 237 11.7
2006-07-26 08:03:02 51°15.55 2°51.398 244.3 2.8 242 11.8
2006-07-26 08:04:02 51°15.531 2°51.324 264.8 3.2 252 11.9
2006-07-26 08:05:02 51°15.519 2°51.234 279.7 4 264 11.9
2006-07-26 08:06:02 51°15.537 2°51.111 317.8 5.1 299 11.9
2006-07-26 08:07:02 51°15.597 2°51.03 358.3 4.6 339 12
2006-07-26 08:08:01 51°15.662 2°51.037 38.4 3.7 28 12
2006-07-26 08:09:02 51°15.689 2°51.096 69.7 1.8 76 11.9
2006-07-26 08:10:02 51°15.683 2°51.126 89 1.1 139 12
2006-07-26 08:11:02 51°15.664 2°51.136 103 1.3 176 12
2006-07-26 08:12:02 51°15.599 2°51.169 160.6 7.2 179 11.9
2006-07-26 08:13:02 51°15.492 2°51.021 252.3 10.6 249 12
2006-07-26 08:14:02 51°15.374 2°50.747 228.5 13.6 229 11.8
2006-07-26 08:15:02 51°15.239 2°50.443 238.4 14.2 238 11.8
2006-07-26 08:16:02 51°15.117 2°50.119 241.6 14.3 242 11.8
2006-07-26 08:17:02 51°15.012 2°49.78 245.9 14.3 245 11.7
2006-07-26 08:18:02 51°14.913 2°49.438 247 14.2 246 11.7
2006-07-26 08:19:02 51°14.814 2°49.096 246.6 14.2 245 11.6
2006-07-26 08:20:02 51°14.715 2°48.753 247 14.2 245 11.4
2006-07-26 08:21:02 51°14.616 2°48.41 246.7 14.2 245 11.1
2006-07-26 08:22:02 51°14.513 2°48.068 246.6 14.2 245 10.7
2006-07-26 08:23:02 51°14.423 2°47.721 250.8 14.1 248 9.8
2006-07-26 08:24:02 51°14.335 2°47.377 250.4 14 247 9.2
2006-07-26 08:25:02 51°14.245 2°47.038 249 13.8 247 8.3
2006-07-26 08:26:02 51°14.156 2°46.701 248.9 13.8 246 8.4
2006-07-26 08:27:02 51°14.064 2°46.369 247.4 13.7 245 8.3
2006-07-26 08:28:02 51°13.971 2°46.039 250 13.6 247 8.7
2006-07-26 08:29:02 51°13.902 2°45.696 256.8 13.6 252 9.1
2006-07-26 08:30:02 51°13.83 2°45.354 255.4 13.6 252 9.6
2006-07-26 08:31:02 51°13.753 2°45.013 251.6 13.8 248 9.9
2006-07-26 08:32:02 51°13.668 2°44.674 251.3 13.8 248 10
2006-07-26 08:33:02 51°13.58 2°44.335 250 13.8 246 9.7
2006-07-26 08:34:02 51°13.484 2°44.003 249.3 13.7 246 8.9
2006-07-26 08:35:02 51°13.391 2°43.676 247.8 13.4 245 7.9
2006-07-26 08:36:02 51°13.3 2°43.351 248.4 13.4 245 8.1
2006-07-26 08:37:02 51°13.193 2°43.038 243.8 13.5 242 8.6
2006-07-26 08:38:02 51°13.085 2°42.724 244.4 13.5 242 8.9
2006-07-26 08:39:02 51°12.965 2°42.422 236 13.5 234 9.1
2006-07-26 08:40:02 51°12.846 2°42.119 248.3 13.5 245 9.3
2006-07-26 08:41:02 51°12.752 2°41.793 248.2 13.6 243 9.6
2006-07-26 08:42:03 51°12.649 2°41.465 246.6 13.6 241 9.7
2006-07-26 08:43:02 51°12.532 2°41.164 242.4 13.6 240 9.6
2006-07-26 08:44:03 51°12.433 2°40.831 250.4 13.8 246 9.8
2006-07-26 08:45:02 51°12.318 2°40.521 240.7 13.8 237 9.8
2006-07-26 08:46:02 51°12.195 2°40.21 241.7 13.9 238 9.6
2006-07-26 08:47:02 51°12.072 2°39.9 241.6 13.8 238 9.4
2006-07-26 08:48:02 51°11.949 2°39.59 241.3 13.8 238 9.3
2006-07-26 08:49:02 51°11.827 2°39.281 240 13.8 237 9
2006-07-26 08:50:02 51°11.704 2°38.976 240.9 13.7 238 8.8
2006-07-26 08:51:03 51°11.58 2°38.665 240.7 13.7 238 9
2006-07-26 08:52:02 51°11.462 2°38.364 241.6 13.6 239 9
2006-07-26 08:53:02 51°11.343 2°38.057 241.5 13.6 239 9.2
2006-07-26 08:54:02 51°11.22 2°37.754 238.1 13.6 236 9.9
2006-07-26 08:55:02 51°11.099 2°37.451 239.1 13.5 236 10
2006-07-26 08:56:02 51°10.977 2°37.15 240.4 13.5 238 10.4
2006-07-26 08:57:02 51°10.849 2°36.855 234.4 13.6 232 10
2006-07-26 08:58:02 51°10.711 2°36.57 237.5 13.6 235 9.8
2006-07-26 08:59:02 51°10.578 2°36.278 236.9 13.6 234 10.1
2006-07-26 09:00:02 51°10.446 2°35.986 236.4 13.6 233 10
2006-07-26 09:01:02 51°10.283 2°35.736 221.8 13.6 221 10.2
2006-07-26 09:02:02 51°10.126 2°35.475 229.3 13.6 227 10.1
2006-07-26 09:03:02 51°9.968 2°35.218 224 13.6 223 12.5
2006-07-26 09:04:02 51°9.801 2°34.973 223.3 13.7 223 15.9
2006-07-26 09:05:02 51°9.674 2°34.674 244.6 13.9 244 16
2006-07-26 09:06:02 51°9.573 2°34.337 246.6 14.1 245 15.8
2006-07-26 09:07:03 51°9.452 2°34.009 235.2 14.2 235 16.1
2006-07-26 09:08:02 51°9.323 2°33.699 239.8 14.4 240 16
2006-07-26 09:09:02 51°9.191 2°33.381 236.9 14.3 236 16.1
2006-07-26 09:10:02 51°9.058 2°33.07 238 14 236 16.8
2006-07-26 09:11:03 51°8.924 2°32.763 236.4 13.9 235 17.7
2006-07-26 09:12:02 51°8.791 2°32.468 229.9 14 229 17.8
2006-07-26 09:13:02 51°8.638 2°32.189 229.3 14 229 17.7
2006-07-26 09:14:02 51°8.485 2°31.906 229.5 14.1 227 17.3
2006-07-26 09:15:03 51°8.28 2°31.722 201 14.1 204 17.5
2006-07-26 09:16:02 51°8.061 2°31.612 190.1 13.8 193 18.5
2006-07-26 09:17:02 51°7.864 2°31.681 139.3 10.1 144 18.2
2006-07-26 09:18:02 51°7.815 2°31.808 82.2 3.6 86 17.3
2006-07-26 09:19:02 51°7.849 2°31.888 45.5 4.9 38 17.5
2006-07-26 09:20:02 51°7.899 2°31.919 24.2 2.4 4 17.3
2006-07-26 09:21:02 51°7.938 2°31.914 18.8 3.7 2 17.6
2006-07-26 09:22:02 51°8.013 2°31.947 40.5 4.5 32 17.8
2006-07-26 09:23:03 51°8.046 2°32.025 74.8 3.2 79 17.9
2006-07-26 09:24:02 51°8.039 2°32.111 94.1 3.4 105 17.5
2006-07-26 09:25:02 51°8.026 2°32.198 90.9 3.3 102 15.7
2006-07-26 09:26:02 51°8.015 2°32.279 90.6 3 103 15.3
2006-07-26 09:27:03 51°8.004 2°32.356 88.3 2.8 102 16.3
2006-07-26 09:28:02 51°7.996 2°32.427 84.2 2.7 96 16.2
2006-07-26 09:29:03 51°8 2°32.498 70.4 2.8 75 16.1
2006-07-26 09:30:02 51°8.018 2°32.572 64.8 3.1 67 16
2006-07-26 09:31:02 51°8.039 2°32.648 64 3.1 66 16
2006-07-26 09:32:02 51°8.059 2°32.725 66.5 3.2 69 15.9
2006-07-26 09:33:02 51°8.077 2°32.802 66.8 3.1 70 16
2006-07-26 09:34:03 51°8.096 2°32.88 64.7 3.1 67 15.6
2006-07-26 09:35:02 51°8.117 2°32.95 62.2 3 62 15.8
2006-07-26 09:36:03 51°8.14 2°33.021 62.1 3 63 15.9
2006-07-26 09:37:02 51°8.163 2°33.089 61.8 3 61 16
2006-07-26 09:38:03 51°8.186 2°33.16 62 3 63 16.2
2006-07-26 09:39:02 51°8.208 2°33.229 61.9 3 63 16.3
2006-07-26 09:40:02 51°8.232 2°33.3 62.1 3 63 16.2
2006-07-26 09:41:02 51°8.254 2°33.371 62.8 3 64 16.2
2006-07-26 09:42:02 51°8.277 2°33.443 62.8 3 63 16.2
2006-07-26 09:43:03 51°8.3 2°33.516 62.2 3.1 62 16.3
2006-07-26 09:44:02 51°8.323 2°33.585 61.8 3 62 16.4
2006-07-26 09:45:02 51°8.348 2°33.652 58.9 2.9 58 16.4
2006-07-26 09:46:02 51°8.374 2°33.717 59.1 2.9 58 16.5
2006-07-26 09:47:02 51°8.4 2°33.784 59.5 2.9 58 16.6
2006-07-26 09:48:03 51°8.427 2°33.85 57.8 3 56 16.5
2006-07-26 09:49:03 51°8.454 2°33.915 58.4 3 57 16.6
2006-07-26 09:50:02 51°8.481 2°33.981 58.9 3 57 16.7
2006-07-26 09:51:02 51°8.507 2°34.048 59.1 3 58 16.7
2006-07-26 09:52:03 51°8.533 2°34.116 60.2 2.9 59 16.8
2006-07-26 09:53:02 51°8.558 2°34.181 60.2 3 60 16.8
2006-07-26 09:54:02 51°8.583 2°34.249 59.6 2.9 58 16.8
2006-07-26 09:55:03 51°8.609 2°34.315 59.9 3 59 16.9
2006-07-26 09:56:03 51°8.635 2°34.382 59.9 2.9 59 16.9
2006-07-26 09:57:01 51°8.659 2°34.447 59.4 3 58 16.9
2006-07-26 09:58:03 51°8.692 2°34.509 50 3 45 16.9
2006-07-26 09:59:03 51°8.728 2°34.565 49.7 3.1 45 16.9
2006-07-26 10:00:02 51°8.764 2°34.622 50 3.1 44 16.7
2006-07-26 10:01:03 51°8.802 2°34.681 50.1 3.1 45 16.7
2006-07-26 10:02:02 51°8.838 2°34.739 50.8 3.2 45 16.6
2006-07-26 10:03:03 51°8.874 2°34.802 55.8 3.3 53 16.7
2006-07-26 10:04:03 51°8.907 2°34.884 61 3.8 59 16.5
2006-07-26 10:05:02 51°8.935 2°34.972 66.7 3.8 66 16.6
2006-07-26 10:06:03 51°8.958 2°35.068 71.3 3.7 70 16.4
2006-07-26 10:07:02 51°8.973 2°35.139 70 2.3 71 16.4
2006-07-26 10:08:03 51°8.986 2°35.178 59.2 1.2 52 16.5
2006-07-26 10:09:02 51°8.997 2°35.193 49.3 0.7 28 16.4
2006-07-26 10:10:03 51°9.006 2°35.197 45.2 0.5 359 16.3
2006-07-26 10:11:02 51°9.014 2°35.196 44.1 1 25 16.5
2006-07-26 10:12:03 51°9.033 2°35.268 84.9 5.5 87 16.5
2006-07-26 10:13:03 51°9.041 2°35.458 82.1 7.9 81 16.4
2006-07-26 10:14:03 51°9.057 2°35.671 93.4 8.2 94 16.1
2006-07-26 10:15:03 51°9.039 2°35.891 97.4 8.4 99 15.2
2006-07-26 10:16:02 51°9.017 2°36.108 97 8.4 96 13.5
2006-07-26 10:17:02 51°9.032 2°36.254 64.4 4.3 64 12.9
2006-07-26 10:18:02 51°9.054 2°36.365 86.3 4.1 89 12.6
2006-07-26 10:19:02 51°9.048 2°36.459 89.8 3.2 95 11.9
2006-07-26 10:20:02 51°9.048 2°36.539 82.8 3 89 11.5
2006-07-26 10:21:02 51°9.046 2°36.616 88.3 2.8 93 11.1
2006-07-26 10:22:02 51°9.044 2°36.69 85.3 2.7 90 10.9
2006-07-26 10:23:03 51°9.045 2°36.766 83.5 3 88 10.6
2006-07-26 10:24:03 51°9.046 2°36.847 84 3.1 89 10.5
2006-07-26 10:25:03 51°9.048 2°36.93 84.5 3.1 89 10.4
2006-07-26 10:26:03 51°9.049 2°37.013 84.4 3.1 88 10.3
2006-07-26 10:27:03 51°9.051 2°37.094 83.9 3.1 89 10.2
2006-07-26 10:28:02 51°9.052 2°37.173 83.4 3 87 10.1
2006-07-26 10:29:03 51°9.054 2°37.252 83.7 3 87 10.2
2006-07-26 10:30:03 51°9.056 2°37.331 83.4 3 88 10.2
2006-07-26 10:31:03 51°9.059 2°37.41 81 3 85 10.2
2006-07-26 10:32:03 51°9.066 2°37.488 76.2 3 78 10.2
2006-07-26 10:33:03 51°9.078 2°37.564 72.9 3 75 10.2
2006-07-26 10:34:03 51°9.093 2°37.64 72.2 3 73 10.2
2006-07-26 10:35:03 51°9.108 2°37.716 70 3 70 10.2
2006-07-26 10:36:02 51°9.125 2°37.791 70.4 3 71 10.4
2006-07-26 10:37:03 51°9.142 2°37.869 70.7 3.1 70 10.4
2006-07-26 10:38:03 51°9.158 2°37.947 72.1 3.1 73 10.4
2006-07-26 10:39:03 51°9.175 2°38.026 71.1 3.1 72 10.4
2006-07-26 10:40:03 51°9.191 2°38.106 72.8 3.1 73 10.4
2006-07-26 10:41:02 51°9.204 2°38.181 72.6 3.1 74 10.4
2006-07-26 10:42:03 51°9.221 2°38.258 69.3 3 69 10.5
2006-07-26 10:43:02 51°9.24 2°38.33 67.7 3 66 10.5
2006-07-26 10:44:03 51°9.259 2°38.402 67.5 3 67 10.5
2006-07-26 10:45:02 51°9.279 2°38.474 68.8 3 68 10.5
2006-07-26 10:46:03 51°9.297 2°38.549 70 3 69 10.5
2006-07-26 10:47:03 51°9.314 2°38.624 71.6 3 72 10.5
2006-07-26 10:48:02 51°9.33 2°38.698 71.9 3 73 10.5
2006-07-26 10:49:03 51°9.346 2°38.775 70.6 3 71 10.4
2006-07-26 10:50:02 51°9.362 2°38.85 71.6 3 72 10.5
2006-07-26 10:51:02 51°9.376 2°38.927 74.6 3 76 10.5
2006-07-26 10:52:03 51°9.39 2°39.005 73.4 3 74 10.4
2006-07-26 10:53:02 51°9.405 2°39.079 71.9 2.9 73 10.4
2006-07-26 10:54:03 51°9.42 2°39.154 71.6 2.9 73 10.4
2006-07-26 10:55:03 51°9.434 2°39.229 70.9 3 73 10.5
2006-07-26 10:56:03 51°9.448 2°39.303 71.1 3 74 10.4
2006-07-26 10:57:02 51°9.462 2°39.377 70 3 72 10.4
2006-07-26 10:58:03 51°9.477 2°39.453 70.4 3 74 10.4
2006-07-26 10:59:02 51°9.491 2°39.528 71.1 3 74 10.3
2006-07-26 11:00:03 51°9.505 2°39.606 71.7 3 75 10.4
2006-07-26 11:01:03 51°9.518 2°39.683 71.7 3 75 10.2
2006-07-26 11:02:02 51°9.531 2°39.76 71.8 3.2 76 10.2
2006-07-26 11:03:03 51°9.538 2°39.851 87.2 3.6 91 10.2
2006-07-26 11:04:03 51°9.534 2°39.954 91.4 4.1 94 10
2006-07-26 11:05:03 51°9.526 2°40.063 98.5 4.2 101 9.8
2006-07-26 11:06:03 51°9.499 2°40.168 118.7 4.4 119 9.8
2006-07-26 11:07:03 51°9.472 2°40.264 108 3.4 109 9.7
2006-07-26 11:08:02 51°9.463 2°40.334 93.6 2.3 96 9.6
2006-07-26 11:09:03 51°9.462 2°40.391 84.6 2.5 84 9.7
2006-07-26 11:10:03 51°9.495 2°40.465 36.9 4.3 36 9.7
2006-07-26 11:11:03 51°9.576 2°40.504 7.4 6.3 8 9.8
2006-07-26 11:12:03 51°9.733 2°40.519 0.3 10.7 358 10.2
2006-07-26 11:13:02 51°9.911 2°40.474 344.4 11.1 342 11.1
2006-07-26 11:14:03 51°10.068 2°40.314 319.7 11.2 318 12.3
2006-07-26 11:15:02 51°10.17 2°40.084 295 10.5 292 13.3
2006-07-26 11:16:03 51°10.2 2°39.813 273.1 10.3 271 14.2
2006-07-26 11:17:03 51°10.204 2°39.54 273.4 10.4 273 15
2006-07-26 11:18:03 51°10.214 2°39.266 272 10.4 270 15.9
2006-07-26 11:19:03 51°10.213 2°38.989 272.2 10.5 271 16.5
2006-07-26 11:20:02 51°10.22 2°38.715 274.7 10.5 275 17.2
2006-07-26 11:21:03 51°10.24 2°38.433 277.2 10.6 276 17.2
2006-07-26 11:22:02 51°10.263 2°38.242 291.3 5 291 18.1
2006-07-26 11:23:03 51°10.294 2°38.157 305 2.8 307 18.3
2006-07-26 11:24:03 51°10.324 2°38.092 298.3 5 294 18.7
2006-07-26 11:25:03 51°10.332 2°37.878 276.3 10.5 276 19.4
2006-07-26 11:26:03 51°10.357 2°37.569 277.9 12.2 277 19.4
2006-07-26 11:27:03 51°10.393 2°37.251 283.7 12.2 282 18.6
2006-07-26 11:28:02 51°10.425 2°36.942 285.6 11.9 283 14.8
2006-07-26 11:29:03 51°10.495 2°36.648 298.3 11.8 297 10.8
2006-07-26 11:30:04 51°10.622 2°36.404 325.3 12 327 12.1
2006-07-26 11:31:04 51°10.82 2°36.394 16 12.5 17 13.6
2006-07-26 11:32:04 51°11.007 2°36.556 34.8 12.9 34 14.2
2006-07-26 11:33:04 51°11.187 2°36.744 33.9 13 33 14.2
2006-07-26 11:34:04 51°11.37 2°36.93 30.4 13 29 14.9
2006-07-26 11:35:03 51°11.549 2°37.111 36.8 13.1 36 15.2
2006-07-26 11:36:04 51°11.733 2°37.307 34.8 13.1 34 15.3
2006-07-26 11:37:04 51°11.917 2°37.495 31.9 13.1 30 15.2
2006-07-26 11:38:04 51°12.104 2°37.671 35.5 13 34 15
2006-07-26 11:39:04 51°12.285 2°37.861 33.1 13 31 15.1
2006-07-26 11:40:04 51°12.478 2°38.008 25.2 13 25 15.1
2006-07-26 11:41:04 51°12.668 2°38.175 30.3 13.1 29 15.2
2006-07-26 11:42:04 51°12.859 2°38.342 31.5 13.1 31 15.5
2006-07-26 11:43:03 51°13.047 2°38.509 30.4 13.2 29 15.9
2006-07-26 11:44:04 51°13.246 2°38.668 28.4 13.3 28 16.3
2006-07-26 11:45:03 51°13.439 2°38.826 21.7 13 18 15.2
2006-07-26 11:46:04 51°13.653 2°38.86 2.3 12.6 1 16.6
2006-07-26 11:47:03 51°13.855 2°38.835 354.5 12.3 354 15.5
2006-07-26 11:48:04 51°14.063 2°38.827 1.4 12.4 1 13.5
2006-07-26 11:49:03 51°14.262 2°38.802 354.4 12.4 355 16.6
2006-07-26 11:50:04 51°14.475 2°38.795 0.1 12.6 359 19.9
2006-07-26 11:51:04 51°14.684 2°38.786 0.3 12.6 358 18.7
2006-07-26 11:52:04 51°14.893 2°38.764 356.1 12.6 355 19.1
2006-07-26 11:53:04 51°15.103 2°38.755 1.1 12.7 359 19.9
2006-07-26 11:54:04 51°15.313 2°38.735 355.1 12.5 351 19.6
2006-07-26 11:55:04 51°15.517 2°38.669 352 12.6 352 17.6
2006-07-26 11:56:04 51°15.725 2°38.617 349.7 12.6 351 15.8
2006-07-26 11:57:04 51°15.93 2°38.56 344.8 12.4 346 14.2
2006-07-26 11:58:04 51°16.129 2°38.485 348.6 12.3 350 12.8
2006-07-26 11:59:04 51°16.327 2°38.414 342.3 12.1 344 11.6
2006-07-26 12:00:04 51°16.523 2°38.344 347.8 12.2 350 11.3
2006-07-26 12:01:04 51°16.723 2°38.283 347.1 12.3 349 12.5
2006-07-26 12:02:04 51°16.928 2°38.206 345.7 12.9 346 25.7
2006-07-26 12:03:03 51°17.133 2°38.12 344.9 13 345 28.5
2006-07-26 12:04:04 51°17.345 2°38.028 344.7 12.9 345 29
2006-07-26 12:05:03 51°17.548 2°37.942 345.9 12.9 346 28.9
2006-07-26 12:06:04 51°17.758 2°37.847 343.8 12.9 344 29.2
2006-07-26 12:07:04 51°17.968 2°37.76 345.1 13 345 28.1
2006-07-26 12:08:04 51°18.179 2°37.674 346.4 13.1 346 26.1
2006-07-26 12:09:04 51°18.388 2°37.581 345.4 13 345 24.8
2006-07-26 12:10:04 51°18.597 2°37.503 345.2 12.7 346 24.1
2006-07-26 12:11:04 51°18.802 2°37.427 346.1 12.6 348 22.8
2006-07-26 12:12:03 51°19.004 2°37.357 345.6 12.6 348 22.1
2006-07-26 12:13:04 51°19.212 2°37.286 345.4 12.7 348 20.5
2006-07-26 12:14:04 51°19.417 2°37.216 344.7 12.6 347 24
2006-07-26 12:15:04 51°19.627 2°37.165 349.1 12.8 350 21.9
2006-07-26 12:16:04 51°19.816 2°37.042 331 11.8 334 23
2006-07-26 12:17:04 51°19.961 2°36.946 334.7 8.6 340 23.4
2006-07-26 12:18:04 51°20.084 2°36.831 316.9 9.6 320 24.2
2006-07-26 12:19:04 51°20.11 2°36.607 249.3 9.5 240 24.2
2006-07-26 12:20:04 51°20.034 2°36.349 257.6 11.1 257 23.2
2006-07-26 12:21:03 51°20.015 2°36.058 266.2 11.3 267 22.6
2006-07-26 12:22:04 51°20.008 2°35.756 270.5 11.2 272 21.1
2006-07-26 12:23:03 51°20.058 2°35.475 290.6 11.3 293 18.8
2006-07-26 12:24:04 51°20.13 2°35.193 289.6 11.3 292 20.5
2006-07-26 12:25:04 51°20.201 2°34.912 289.6 11.5 293 28.4
2006-07-26 12:26:04 51°20.277 2°34.628 289.4 11.6 292 32.2
2006-07-26 12:27:04 51°20.35 2°34.34 289.5 11.7 291 32.7
2006-07-26 12:28:04 51°20.435 2°34.056 294.6 11.9 296 33.2
2006-07-26 12:29:04 51°20.526 2°33.772 294.4 12 296 33
2006-07-26 12:30:04 51°20.612 2°33.485 295.4 12.1 298 32.8
2006-07-26 12:31:04 51°20.68 2°33.193 282.8 11.6 285 32.6
2006-07-26 12:32:04 51°20.737 2°32.902 287.8 11.4 290 32
2006-07-26 12:33:04 51°20.8 2°32.616 287.6 11.4 290 32.4
2006-07-26 12:34:04 51°20.86 2°32.342 287.2 10.2 289 31.4
2006-07-26 12:35:04 51°20.903 2°32.147 285.5 8 289 25.4
2006-07-26 12:36:04 51°20.948 2°31.941 285.3 7.6 289 21.3
2006-07-26 12:37:04 51°20.989 2°31.775 288.3 5.3 295 17.9
2006-07-26 12:38:04 51°21.029 2°31.635 284.5 7.1 289 14.4
2006-07-26 12:39:03 51°21.074 2°31.431 285.2 8.7 290 14.6
2006-07-26 12:40:03 51°21.118 2°31.231 279.4 5.7 289 15.4
2006-07-26 12:41:04 51°21.152 2°31.194 315.4 2.2 53 14
2006-07-26 12:42:04 51°21.171 2°31.237 339.9 1.9 56 18
2006-07-26 12:43:04 51°21.188 2°31.28 344.3 2 63 14.9
2006-07-26 12:44:03 51°21.205 2°31.327 341.6 1.9 58 14.4
2006-07-26 12:45:04 51°21.222 2°31.369 335.7 1.7 56 15.1
2006-07-26 12:46:04 51°21.238 2°31.408 328.4 1.7 54 14.5
2006-07-26 12:47:04 51°21.255 2°31.445 320.4 1.7 53 14.1
2006-07-26 12:48:04 51°21.271 2°31.478 321.1 1.6 54 16
2006-07-26 12:49:04 51°21.285 2°31.51 328.5 1.5 53 17.4
2006-07-26 12:50:04 51°21.3 2°31.542 336.7 1.5 55 17
2006-07-26 12:51:03 51°21.315 2°31.574 338.3 1.4 55 17.4
2006-07-26 12:52:04 51°21.328 2°31.606 338.7 1.4 58 18.1
2006-07-26 12:53:04 51°21.344 2°31.636 342.8 2.2 27 15.1
2006-07-26 12:54:04 51°21.395 2°31.706 54.4 5.8 57 17.7
2006-07-26 12:55:03 51°21.426 2°31.948 95.7 11.5 91 18.9
2006-07-26 12:56:04 51°21.369 2°32.265 119.9 12.6 112 20.3
2006-07-26 12:57:04 51°21.29 2°32.592 114.2 13.4 108 25.3
2006-07-26 12:58:04 51°21.216 2°32.925 117.1 13.4 109 29.8
2006-07-26 12:59:03 51°21.144 2°33.258 117.5 13.4 109 32.2
2006-07-26 13:00:04 51°21.069 2°33.601 115.6 13.5 108 34.2
2006-07-26 13:01:04 51°20.987 2°33.93 125.9 13.2 117 32.7
2006-07-26 13:02:04 51°20.886 2°34.234 129.6 12.8 121 32.9
2006-07-26 13:03:03 51°20.778 2°34.519 128.4 12.8 119 34.1
2006-07-26 13:04:04 51°20.669 2°34.818 129.8 12.8 120 30
2006-07-26 13:05:04 51°20.576 2°35.129 119.7 13.2 111 32.9
2006-07-26 13:06:04 51°20.492 2°35.454 121.7 13.3 112 28.3
2006-07-26 13:07:04 51°20.419 2°35.795 117.4 13.5 110 21.3
2006-07-26 13:08:04 51°20.349 2°36.142 113 13.8 105 21.8
2006-07-26 13:09:04 51°20.276 2°36.484 116.2 13.6 108 23.1
2006-07-26 13:10:04 51°20.202 2°36.822 121.4 13.4 114 22.9
2006-07-26 13:11:04 51°20.091 2°37.125 135.4 13 127 24.1
2006-07-26 13:12:04 51°19.961 2°37.401 133.5 13.1 124 24.4
2006-07-26 13:13:04 51°19.836 2°37.689 133.3 13.2 124 24.9
2006-07-26 13:14:04 51°19.713 2°37.976 131.7 13.2 124 23.4
2006-07-26 13:15:04 51°19.586 2°38.259 134.3 13 126 24.9
2006-07-26 13:16:04 51°19.465 2°38.548 130.6 13 124 26.8
2006-07-26 13:17:04 51°19.34 2°38.828 132.8 13 125 30
2006-07-26 13:18:04 51°19.225 2°39.116 129.7 12.6 123 30.6
2006-07-26 13:19:04 51°19.097 2°39.373 138.3 12.4 129 28.7
2006-07-26 13:20:04 51°18.966 2°39.627 139.2 12.3 131 26.8
2006-07-26 13:21:04 51°18.837 2°39.886 137.2 12.4 130 26.1
2006-07-26 13:22:04 51°18.708 2°40.149 137.4 12.5 129 26.5
2006-07-26 13:23:04 51°18.578 2°40.412 136.7 12.8 128 14.9
2006-07-26 13:24:04 51°18.443 2°40.682 137.2 13.1 129 21.9
2006-07-26 13:25:04 51°18.307 2°40.956 135.5 13.3 127 18.4
2006-07-26 13:26:04 51°18.171 2°41.232 136.6 13.2 129 21.7
2006-07-26 13:27:04 51°18.037 2°41.506 137 13.1 130 25.1
2006-07-26 13:28:04 51°17.892 2°41.761 138.9 12.9 131 26
2006-07-26 13:29:04 51°17.754 2°42.012 138.8 12.4 130 26.3
2006-07-26 13:30:04 51°17.619 2°42.262 141.4 12.4 133 25.7
2006-07-26 13:31:04 51°17.484 2°42.514 139.1 12.5 131 23.9
2006-07-26 13:32:04 51°17.35 2°42.773 137 12.8 129 14.3
2006-07-26 13:33:04 51°17.203 2°43.021 142.6 12.9 135 14.4
2006-07-26 13:34:04 51°17.061 2°43.278 136.8 13 130 15.7
2006-07-26 13:35:04 51°16.925 2°43.544 138.6 12.8 133 16.5
2006-07-26 13:36:03 51°16.779 2°43.782 140 12.8 132 17.2
2006-07-26 13:37:04 51°16.63 2°44.028 144.9 12.6 138 17.2
2006-07-26 13:38:04 51°16.482 2°44.265 139.3 12.6 132 15.5
2006-07-26 13:39:04 51°16.327 2°44.481 146.7 12.4 140 14.2
2006-07-26 13:40:04 51°16.173 2°44.698 141.4 12.4 134 13.2
2006-07-26 13:41:04 51°16.074 2°44.995 116.8 13 110 13.4
2006-07-26 13:42:04 51°16.023 2°45.336 110.3 13.2 106 14
2006-07-26 13:43:04 51°15.96 2°45.67 112.6 13.1 108 14.5
2006-07-26 13:44:04 51°15.896 2°46.006 113.2 13.3 108 17
2006-07-26 13:45:04 51°15.835 2°46.351 110.6 13.6 104 18.9
2006-07-26 13:46:04 51°15.775 2°46.7 113.8 13.6 108 19.3
2006-07-26 13:47:04 51°15.711 2°47.047 109.7 13.7 105 17.9
2006-07-26 13:48:04 51°15.643 2°47.393 112.5 13.6 107 16.6
2006-07-26 13:49:04 51°15.586 2°47.742 108.8 13.6 104 14.6
2006-07-26 13:50:04 51°15.523 2°48.085 111.9 13.4 108 13.3
2006-07-26 13:51:04 51°15.447 2°48.417 112 13.3 107 12.9
2006-07-26 13:52:04 51°15.397 2°48.761 109.5 13.4 104 14.6
2006-07-26 13:53:04 51°15.356 2°49.115 104.5 13.6 99 15.5
2006-07-26 13:54:04 51°15.315 2°49.469 108.8 13.5 103 15.4
2006-07-26 13:55:04 51°15.26 2°49.812 108.7 13.3 103 15.3
2006-07-26 13:56:04 51°15.222 2°50.162 106.4 13.4 101 15.3
2006-07-26 13:57:04 51°15.169 2°50.506 107.3 13.4 101 15.1
2006-07-26 13:58:04 51°15.138 2°50.859 105.7 13.5 101 14.9
2006-07-26 13:59:04 51°15.093 2°51.207 103.4 13.4 98 14.5
2006-07-26 14:00:04 51°15.056 2°51.558 106.5 13.4 100 14.2
2006-07-26 14:01:04 51°15.023 2°51.912 103.6 13.5 98 13.6
2006-07-26 14:02:04 51°14.984 2°52.26 108.6 13.3 103 13
2006-07-26 14:03:04 51°14.939 2°52.608 108.1 13.4 102 12.7
2006-07-26 14:04:04 51°14.883 2°52.949 109.4 13.2 105 13.1
2006-07-26 14:05:04 51°14.821 2°53.284 111 13.1 106 13.1
2006-07-26 14:06:04 51°14.777 2°53.623 107.5 13 103 12.6
2006-07-26 14:07:04 51°14.723 2°53.81 143 5.3 127 13.1
2006-07-26 14:08:04 51°14.678 2°53.885 166.4 3.2 136 13.3
2006-07-26 14:09:04 51°14.645 2°53.93 178 2.4 141 13.3
2006-07-26 14:10:04 51°14.615 2°53.969 175.4 2.3 140 13.3
2006-07-26 14:11:04 51°14.586 2°54.015 164.6 2.8 132 13.3
2006-07-26 14:12:04 51°14.554 2°54.083 147.5 3.5 122 13.3
2006-07-26 14:13:04 51°14.532 2°54.173 129 3.6 105 13.2
2006-07-26 14:14:04 51°14.524 2°54.261 120.6 3.3 97 13.2
2006-07-26 14:15:03 51°14.523 2°54.345 114.3 3.2 89 13.1
2006-07-26 14:16:03 51°14.523 2°54.426 119.2 2.9 91 13.2
2006-07-26 14:17:04 51°14.522 2°54.499 122.7 2.7 91 13.1
2006-07-26 14:18:04 51°14.493 2°54.568 182 3.5 161 13
2006-07-26 14:19:04 51°14.477 2°54.49 286.6 4 299 13
2006-07-26 14:20:04 51°14.515 2°54.408 297.6 2.5 328 13.1
2006-07-26 14:21:04 51°14.513 2°54.445 325.1 2.4 114 -999
2006-07-26 14:22:03 51°14.525 2°54.478 335.2 1.8 20 5.4
2006-07-26 14:23:03 51°14.546 2°54.502 339 2.7 9 13
2006-07-26 14:24:03 51°14.606 2°54.612 90.9 7.1 87 12.1
2006-07-26 14:25:04 51°14.529 2°54.803 143.7 10.5 133 11.9
2006-07-26 14:26:04 51°14.39 2°55.033 140 12.3 133 12.8
2006-07-26 14:27:04 51°14.274 2°55.248 133.1 9.2 130 12.8
2006-07-26 14:28:03 51°14.174 2°55.377 151.3 7.3 149 12.7
2006-07-26 14:29:03 51°14.067 2°55.457 158.9 6.9 156 12.7
2006-07-26 14:30:04 51°13.962 2°55.531 158.9 6.9 155 12.9
2006-07-26 14:31:07 51°13.851 2°55.612 157 7 154 -999
2006-07-26 14:32:07 51°13.767 2°55.702 142.2 6.1 139 -999
2006-07-26 14:33:07 51°13.693 2°55.829 132.1 6 129 -999
2006-07-26 14:34:07 51°13.644 2°55.932 127.2 4.3 125 -999
2006-07-26 14:35:07 51°13.615 2°56.016 111.8 3 110 -999
2006-07-26 14:36:07 51°13.606 2°56.08 103.7 1.9 104 -999
2006-07-26 14:37:07 51°13.602 2°56.096 106.3 0.2 142 -999